createdAt,value
2019-04-25T00:00:46.426Z,7.60
2019-04-25T00:03:13.759Z,7.60
2019-04-25T00:05:42.502Z,7.60
2019-04-25T00:08:11.462Z,7.70
2019-04-25T00:10:39.180Z,7.60
2019-04-25T00:13:06.766Z,7.60
2019-04-25T00:15:33.811Z,7.60
2019-04-25T00:18:02.361Z,7.60
2019-04-25T00:20:31.508Z,7.60
2019-04-25T00:23:01.918Z,7.60
2019-04-25T00:25:45.860Z,7.60
2019-04-25T00:28:12.019Z,7.60
2019-04-25T00:30:40.303Z,7.60
2019-04-25T00:33:11.552Z,7.60
2019-04-25T00:35:39.046Z,7.60
2019-04-25T00:38:06.279Z,7.70
2019-04-25T00:40:33.282Z,7.70
2019-04-25T00:43:01.566Z,7.70
2019-04-25T00:45:28.810Z,7.70
2019-04-25T00:47:55.949Z,7.70
2019-04-25T00:50:23.040Z,7.70
2019-04-25T00:52:51.938Z,7.80
2019-04-25T00:55:26.922Z,7.70
2019-04-25T00:57:51.587Z,7.80
2019-04-25T01:00:35.547Z,7.70
2019-04-25T01:03:05.227Z,7.70
2019-04-25T01:05:32.377Z,7.70
2019-04-25T01:08:02.029Z,7.80
2019-04-25T01:10:29.225Z,7.80
2019-04-25T01:12:57.243Z,7.70
2019-04-25T01:15:24.779Z,7.70
2019-04-25T01:17:52.615Z,7.70
2019-04-25T01:20:20.559Z,7.80
2019-04-25T01:22:47.644Z,7.80
2019-04-25T01:25:14.683Z,7.80
2019-04-25T01:27:43.241Z,7.80
2019-04-25T01:30:14.112Z,7.80
2019-04-25T01:32:41.299Z,7.80
2019-04-25T01:35:20.345Z,7.80
2019-04-25T01:37:54.805Z,7.90
2019-04-25T01:40:38.320Z,7.90
2019-04-25T01:43:15.888Z,7.90
2019-04-25T01:45:43.793Z,7.90
2019-04-25T01:48:11.211Z,7.90
2019-04-25T01:50:39.299Z,8.00
2019-04-25T01:53:06.455Z,8.00
2019-04-25T01:55:33.835Z,8.00
2019-04-25T01:58:01.018Z,8.00
2019-04-25T02:00:33.269Z,8.00
2019-04-25T02:03:00.685Z,8.00
2019-04-25T02:05:27.873Z,8.00
2019-04-25T02:07:55.791Z,8.00
2019-04-25T02:10:25.357Z,8.00
2019-04-25T02:12:55.253Z,8.00
2019-04-25T02:15:24.955Z,8.00
2019-04-25T02:17:55.450Z,7.90
2019-04-25T02:20:20.920Z,7.90
2019-04-25T02:22:48.063Z,7.90
2019-04-25T02:25:15.235Z,7.90
2019-04-25T02:27:43.761Z,7.90
2019-04-25T02:30:12.348Z,7.90
2019-04-25T02:32:39.669Z,7.90
2019-04-25T02:35:09.418Z,7.90
2019-04-25T02:37:36.844Z,7.90
2019-04-25T02:40:08.124Z,7.90
2019-04-25T02:42:35.313Z,7.90
2019-04-25T02:45:21.022Z,7.90
2019-04-25T02:47:57.756Z,7.90
2019-04-25T02:50:26.601Z,7.90
2019-04-25T02:52:57.431Z,7.90
2019-04-25T02:55:31.902Z,7.90
2019-04-25T02:57:54.287Z,7.90
2019-04-25T03:00:25.011Z,7.90
2019-04-25T03:02:54.580Z,7.90
2019-04-25T03:05:21.296Z,7.90
2019-04-25T03:07:48.417Z,7.90
2019-04-25T03:10:15.437Z,8.00
2019-04-25T03:12:44.657Z,7.90
2019-04-25T03:15:11.728Z,7.90
2019-04-25T03:17:38.819Z,7.90
2019-04-25T03:20:16.941Z,7.90
2019-04-25T03:22:44.810Z,7.90
2019-04-25T03:25:16.489Z,7.90
2019-04-25T03:27:40.758Z,7.90
2019-04-25T03:30:13.495Z,7.90
2019-04-25T03:32:38.800Z,7.90
2019-04-25T03:35:08.920Z,7.90
2019-04-25T03:37:36.175Z,7.90
2019-04-25T03:40:06.538Z,7.90
2019-04-25T03:42:33.947Z,7.90
2019-04-25T03:45:01.540Z,7.90
2019-04-25T03:47:30.488Z,7.90
2019-04-25T03:49:57.573Z,7.90
2019-04-25T03:52:24.625Z,7.90
2019-04-25T03:54:53.331Z,7.90
2019-04-25T03:57:20.525Z,8.00
2019-04-25T03:59:48.574Z,7.90
2019-04-25T04:02:16.583Z,7.90
2019-04-25T04:04:43.694Z,7.90
2019-04-25T04:07:11.375Z,7.90
2019-04-25T04:09:39.378Z,7.90
2019-04-25T04:12:06.548Z,7.90
2019-04-25T04:14:33.908Z,7.90
2019-04-25T04:17:14.447Z,7.80
2019-04-25T04:19:48.613Z,7.80
2019-04-25T04:22:25.731Z,7.80
2019-04-25T04:24:54.509Z,7.80
2019-04-25T04:27:21.571Z,7.80
2019-04-25T04:29:48.617Z,7.80
2019-04-25T04:32:16.332Z,7.80
2019-04-25T04:34:45.473Z,7.80
2019-04-25T04:37:14.773Z,7.80
2019-04-25T04:39:41.626Z,7.70
2019-04-25T04:42:09.583Z,7.80
2019-04-25T04:44:36.749Z,7.70
2019-04-25T04:47:04.127Z,7.70
2019-04-25T04:49:31.214Z,7.70
2019-04-25T04:51:58.283Z,7.70
2019-04-25T04:54:25.317Z,7.70
2019-04-25T04:56:53.681Z,7.60
2019-04-25T04:59:20.769Z,7.60
2019-04-25T05:02:01.330Z,7.70
2019-04-25T05:04:46.712Z,7.70
2019-04-25T05:07:25.323Z,7.70
2019-04-25T05:09:53.475Z,7.70
2019-04-25T05:12:21.603Z,7.70
2019-04-25T05:14:48.825Z,7.70
2019-04-25T05:17:17.613Z,7.70
2019-04-25T05:19:44.766Z,7.70
2019-04-25T05:22:14.422Z,7.70
2019-04-25T05:24:40.708Z,7.70
2019-04-25T05:27:07.726Z,7.70
2019-04-25T05:29:35.807Z,7.70
2019-04-25T05:32:04.261Z,7.70
2019-04-25T05:34:31.508Z,7.70
2019-04-25T05:36:58.669Z,7.70
2019-04-25T05:39:26.773Z,7.80
2019-04-25T05:41:55.574Z,7.80
2019-04-25T05:44:24.509Z,7.80
2019-04-25T05:46:51.415Z,7.80
2019-04-25T05:49:19.095Z,7.80
2019-04-25T05:51:46.382Z,7.70
2019-04-25T05:54:14.109Z,7.80
2019-04-25T05:56:41.143Z,7.80
2019-04-25T05:59:08.228Z,7.80
2019-04-25T06:01:36.419Z,7.80
2019-04-25T06:04:05.407Z,7.90
2019-04-25T06:06:36.471Z,7.90
2019-04-25T06:09:20.049Z,7.90
2019-04-25T06:11:55.278Z,7.90
2019-04-25T06:14:24.016Z,7.90
2019-04-25T06:16:53.599Z,8.00
2019-04-25T06:19:41.453Z,8.00
2019-04-25T06:22:15.414Z,8.00
2019-04-25T06:24:44.484Z,8.10
2019-04-25T06:27:13.945Z,8.10
2019-04-25T06:29:57.419Z,8.10
2019-04-25T06:32:14.286Z,8.20
2019-04-25T06:34:41.520Z,8.20
2019-04-25T06:37:08.558Z,8.20
2019-04-25T06:39:37.431Z,8.20
2019-04-25T06:42:04.602Z,8.20
2019-04-25T06:44:49.673Z,8.30
2019-04-25T06:47:24.473Z,7.80
2019-04-25T06:49:53.161Z,8.40
2019-04-25T06:52:21.571Z,8.30
2019-04-25T06:54:49.889Z,8.40
2019-04-25T06:57:17.145Z,8.40
2019-04-25T06:59:44.294Z,8.40
2019-04-25T07:02:11.386Z,8.50
2019-04-25T07:04:38.506Z,8.50
2019-04-25T07:07:12.020Z,8.50
2019-04-25T07:09:35.025Z,8.50
2019-04-25T07:12:03.630Z,8.60
2019-04-25T07:14:31.663Z,8.70
2019-04-25T07:16:58.683Z,8.70
2019-04-25T07:19:26.779Z,8.80
2019-04-25T07:21:54.196Z,8.80
2019-04-25T07:24:21.177Z,8.80
2019-04-25T07:27:03.793Z,8.90
2019-04-25T07:29:33.729Z,8.90
2019-04-25T07:32:19.817Z,8.90
2019-04-25T07:34:47.150Z,9.00
2019-04-25T07:37:14.182Z,9.10
2019-04-25T07:39:41.345Z,9.20
2019-04-25T07:42:08.384Z,9.20
2019-04-25T07:44:49.356Z,9.30
2019-04-25T07:47:04.437Z,9.40
2019-04-25T07:49:33.063Z,9.60
2019-04-25T07:52:00.423Z,9.90
2019-04-25T07:54:27.903Z,10.20
2019-04-25T07:56:55.945Z,10.30
2019-04-25T07:59:23.745Z,10.80
2019-04-25T08:01:50.875Z,11.40
2019-04-25T08:04:18.383Z,11.40
2019-04-25T08:06:45.402Z,11.40
2019-04-25T08:09:15.441Z,11.80
2019-04-25T08:11:41.228Z,12.00
2019-04-25T08:14:25.212Z,11.70
2019-04-25T08:17:09.451Z,11.40
2019-04-25T08:19:37.393Z,11.10
2019-04-25T08:22:04.865Z,11.00
2019-04-25T08:24:34.861Z,11.00
2019-04-25T08:27:04.309Z,11.30
2019-04-25T08:29:31.814Z,11.40
2019-04-25T08:31:59.054Z,11.20
2019-04-25T08:34:27.079Z,11.00
2019-04-25T08:36:54.389Z,11.10
2019-04-25T08:39:21.625Z,11.10
2019-04-25T08:41:48.773Z,11.00
2019-04-25T08:44:15.957Z,10.90
2019-04-25T08:46:44.194Z,10.90
2019-04-25T08:49:16.529Z,10.90
2019-04-25T08:51:44.830Z,10.90
2019-04-25T08:54:25.610Z,11.00
2019-04-25T08:56:55.304Z,11.10
2019-04-25T08:59:44.609Z,11.20
2019-04-25T09:02:10.093Z,11.40
2019-04-25T09:04:41.513Z,11.50
2019-04-25T09:07:08.537Z,11.60
2019-04-25T09:09:37.773Z,11.70
2019-04-25T09:12:04.975Z,12.50
2019-04-25T09:14:32.413Z,13.10
2019-04-25T09:17:00.241Z,13.50
2019-04-25T09:19:27.282Z,13.80
2019-04-25T09:21:54.317Z,13.90
2019-04-25T09:24:21.581Z,14.10
2019-04-25T09:26:48.580Z,14.50
2019-04-25T09:29:19.402Z,14.60
2019-04-25T09:31:45.200Z,14.70
2019-04-25T09:34:13.977Z,14.70
2019-04-25T09:36:41.867Z,14.20
2019-04-25T09:39:11.449Z,13.80
2019-04-25T09:41:38.470Z,13.40
2019-04-25T09:44:07.381Z,13.20
2019-04-25T09:46:37.277Z,13.20
2019-04-25T09:49:06.430Z,13.30
2019-04-25T09:51:37.509Z,13.70
2019-04-25T09:54:23.729Z,13.90
2019-04-25T09:57:11.145Z,14.00
2019-04-25T09:59:39.330Z,14.40
2019-04-25T10:02:06.949Z,14.40
2019-04-25T10:04:34.668Z,14.20
2019-04-25T10:07:03.420Z,13.90
2019-04-25T10:09:30.628Z,13.90
2019-04-25T10:11:57.765Z,14.00
2019-04-25T10:14:34.639Z,14.50
2019-04-25T10:17:01.732Z,15.10
2019-04-25T10:19:28.843Z,15.30
2019-04-25T10:21:55.907Z,15.30
2019-04-25T10:24:23.071Z,15.10
2019-04-25T10:26:50.240Z,14.90
2019-04-25T10:29:17.321Z,15.00
2019-04-25T10:31:45.202Z,15.30
2019-04-25T10:34:13.996Z,15.70
2019-04-25T10:36:42.218Z,15.40
2019-04-25T10:39:11.216Z,15.10
2019-04-25T10:41:39.944Z,15.10
2019-04-25T10:44:09.950Z,15.10
2019-04-25T10:46:37.129Z,15.00
2019-04-25T10:49:04.483Z,15.00
2019-04-25T10:51:31.834Z,15.10
2019-04-25T10:53:58.978Z,14.90
2019-04-25T10:56:25.989Z,14.90
2019-04-25T10:58:54.828Z,14.90
2019-04-25T11:01:22.233Z,14.70
2019-04-25T11:03:54.426Z,14.40
2019-04-25T11:06:24.533Z,14.80
2019-04-25T11:08:51.630Z,14.60
2019-04-25T11:11:18.617Z,14.40
2019-04-25T11:13:46.612Z,14.10
2019-04-25T11:16:14.026Z,14.10
2019-04-25T11:18:41.826Z,13.90
2019-04-25T11:21:09.580Z,13.60
2019-04-25T11:23:36.805Z,13.80
2019-04-25T11:26:03.964Z,13.70
2019-04-25T11:28:31.315Z,13.60
2019-04-25T11:30:58.588Z,13.30
2019-04-25T11:33:26.327Z,13.50
2019-04-25T11:35:55.994Z,13.60
2019-04-25T11:38:27.398Z,13.70
2019-04-25T11:40:59.191Z,13.60
2019-04-25T11:43:26.393Z,13.60
2019-04-25T11:45:54.061Z,13.70
2019-04-25T11:48:23.817Z,13.40
2019-04-25T11:50:52.301Z,13.60
2019-04-25T11:53:20.185Z,13.70
2019-04-25T11:55:48.174Z,13.80
2019-04-25T11:58:16.222Z,14.00
2019-04-25T12:00:45.106Z,14.00
2019-04-25T12:03:13.344Z,14.10
2019-04-25T12:05:40.379Z,14.10
2019-04-25T12:08:08.525Z,13.90
2019-04-25T12:10:35.838Z,13.90
2019-04-25T12:13:03.017Z,13.80
2019-04-25T12:15:30.150Z,13.30
2019-04-25T12:17:57.576Z,13.30
2019-04-25T12:20:24.961Z,13.40
2019-04-25T12:23:04.186Z,13.20
2019-04-25T12:25:20.934Z,13.20
2019-04-25T12:27:49.789Z,13.20
2019-04-25T12:30:17.281Z,13.30
2019-04-25T12:32:46.400Z,13.40
2019-04-25T12:35:14.225Z,13.60
2019-04-25T12:37:41.493Z,13.40
2019-04-25T12:40:09.192Z,13.30
2019-04-25T12:42:36.199Z,13.20
2019-04-25T12:45:06.605Z,13.20
2019-04-25T12:47:50.850Z,13.30
2019-04-25T12:50:18.780Z,13.40
2019-04-25T12:52:46.616Z,13.40
2019-04-25T12:55:16.182Z,13.10
2019-04-25T12:57:43.185Z,13.00
2019-04-25T13:00:13.959Z,13.00
2019-04-25T13:02:41.075Z,12.80
2019-04-25T13:05:08.281Z,12.80
2019-04-25T13:07:37.267Z,12.80
2019-04-25T13:10:06.498Z,12.80
2019-04-25T13:12:33.573Z,12.60
2019-04-25T13:15:00.771Z,12.50
2019-04-25T13:17:27.862Z,12.60
2019-04-25T13:19:56.628Z,12.50
2019-04-25T13:22:24.201Z,12.60
2019-04-25T13:24:56.871Z,12.50
2019-04-25T13:27:25.866Z,12.60
2019-04-25T13:29:59.585Z,12.80
2019-04-25T13:32:32.304Z,12.80
2019-04-25T13:35:01.289Z,12.90
2019-04-25T13:37:28.428Z,12.80
2019-04-25T13:39:55.562Z,12.90
2019-04-25T13:42:23.281Z,12.90
2019-04-25T13:44:50.674Z,12.90
2019-04-25T13:47:18.171Z,13.00
2019-04-25T13:49:45.294Z,13.00
2019-04-25T13:52:12.593Z,13.20
2019-04-25T13:54:39.817Z,13.50
2019-04-25T13:57:06.997Z,13.50
2019-04-25T13:59:34.100Z,13.30
2019-04-25T14:02:04.106Z,13.40
2019-04-25T14:04:31.554Z,13.10
2019-04-25T14:06:58.664Z,13.20
2019-04-25T14:09:27.139Z,13.10
2019-04-25T14:11:54.454Z,13.10
2019-04-25T14:14:22.598Z,13.10
2019-04-25T14:16:57.721Z,12.70
2019-04-25T14:19:44.342Z,12.50
2019-04-25T14:22:11.443Z,12.10
2019-04-25T14:24:38.633Z,12.10
2019-04-25T14:27:06.407Z,12.30
2019-04-25T14:29:33.493Z,12.20
2019-04-25T14:32:01.118Z,12.20
2019-04-25T14:34:28.182Z,12.00
2019-04-25T14:36:55.491Z,11.70
2019-04-25T14:39:23.614Z,11.80
2019-04-25T14:41:50.841Z,11.70
2019-04-25T14:44:17.953Z,11.30
2019-04-25T14:46:45.924Z,10.90
2019-04-25T14:49:13.077Z,10.70
2019-04-25T14:51:40.161Z,10.70
2019-04-25T14:54:09.094Z,10.40
2019-04-25T14:56:40.415Z,10.30
2019-04-25T14:59:07.942Z,10.10
2019-04-25T15:01:44.628Z,10.10
2019-04-25T15:04:03.834Z,10.00
2019-04-25T15:06:30.818Z,9.90
2019-04-25T15:08:57.953Z,9.90
2019-04-25T15:11:24.938Z,9.80
2019-04-25T15:13:52.132Z,9.60
2019-04-25T15:16:19.208Z,9.40
2019-04-25T15:18:47.145Z,9.40
2019-04-25T15:21:14.222Z,9.40
2019-04-25T15:23:41.237Z,9.20
2019-04-25T15:26:08.261Z,9.00
2019-04-25T15:28:36.343Z,8.90
2019-04-25T15:31:03.638Z,9.00
2019-04-25T15:33:31.721Z,8.90
2019-04-25T15:36:07.644Z,8.80
2019-04-25T15:38:45.498Z,8.80
2019-04-25T15:41:15.281Z,8.70
2019-04-25T15:43:59.034Z,8.70
2019-04-25T15:46:28.910Z,8.70
2019-04-25T15:48:56.150Z,8.60
2019-04-25T15:51:23.229Z,8.70
2019-04-25T15:53:52.653Z,8.70
2019-04-25T15:56:19.853Z,8.70
2019-04-25T15:58:47.001Z,8.80
2019-04-25T16:01:14.161Z,8.80
2019-04-25T16:03:41.426Z,8.80
2019-04-25T16:06:08.478Z,8.70
2019-04-25T16:08:35.616Z,8.70
2019-04-25T16:11:02.725Z,8.60
2019-04-25T16:13:32.278Z,8.50
2019-04-25T16:15:59.428Z,8.40
2019-04-25T16:18:27.315Z,8.40
2019-04-25T16:20:55.530Z,8.30
2019-04-25T16:23:22.589Z,8.30
2019-04-25T16:25:49.684Z,8.30
2019-04-25T16:28:16.818Z,8.30
2019-04-25T16:30:43.856Z,9.10
2019-04-25T16:33:13.470Z,8.30
2019-04-25T16:35:40.702Z,8.20
2019-04-25T16:38:07.942Z,8.10
2019-04-25T16:40:34.963Z,8.10
2019-04-25T16:43:04.046Z,8.10
2019-04-25T16:45:31.608Z,8.10
2019-04-25T16:47:58.671Z,8.20
2019-04-25T16:50:25.754Z,8.10
2019-04-25T16:52:52.826Z,8.10
2019-04-25T16:55:19.954Z,8.20
2019-04-25T16:57:47.110Z,8.20
2019-04-25T17:00:32.575Z,8.30
2019-04-25T17:02:59.549Z,8.30
2019-04-25T17:05:26.710Z,8.30
2019-04-25T17:07:53.814Z,8.20
2019-04-25T17:10:20.907Z,8.20
2019-04-25T17:12:50.120Z,8.20
2019-04-25T17:15:18.962Z,8.20
2019-04-25T17:17:53.838Z,8.10
2019-04-25T17:20:22.733Z,8.20
2019-04-25T17:22:49.764Z,8.10
2019-04-25T17:25:17.205Z,8.10
2019-04-25T17:27:44.269Z,7.90
2019-04-25T17:30:11.616Z,7.90
2019-04-25T17:32:56.632Z,7.90
2019-04-25T17:35:37.397Z,7.90
2019-04-25T17:38:15.246Z,7.80
2019-04-25T17:40:42.329Z,7.80
2019-04-25T17:43:11.209Z,7.80
2019-04-25T17:45:39.318Z,7.70
2019-04-25T17:48:06.397Z,7.80
2019-04-25T17:50:34.210Z,7.80
2019-04-25T17:53:01.537Z,7.80
2019-04-25T17:55:28.665Z,7.80
2019-04-25T17:57:55.774Z,7.80
2019-04-25T18:00:24.770Z,7.70
2019-04-25T18:02:58.694Z,7.80
2019-04-25T18:05:21.069Z,7.80
2019-04-25T18:07:48.251Z,7.90
2019-04-25T18:10:15.388Z,7.90
2019-04-25T18:12:42.393Z,8.00
2019-04-25T18:15:11.637Z,7.90
2019-04-25T18:17:39.073Z,7.90
2019-04-25T18:20:15.694Z,8.00
2019-04-25T18:22:47.702Z,8.00
2019-04-25T18:25:19.519Z,8.00
2019-04-25T18:27:48.409Z,8.00
2019-04-25T18:30:15.519Z,8.00
2019-04-25T18:32:45.613Z,8.00
2019-04-25T18:35:20.426Z,8.00
2019-04-25T18:37:56.298Z,8.00
2019-04-25T18:40:37.805Z,8.00
2019-04-25T18:43:07.039Z,8.00
2019-04-25T18:45:37.000Z,7.90
2019-04-25T18:48:05.688Z,7.90
2019-04-25T18:50:33.523Z,8.00
2019-04-25T18:53:08.320Z,8.00
2019-04-25T18:55:50.748Z,8.00
2019-04-25T18:58:37.562Z,8.00
2019-04-25T19:01:25.735Z,8.00
2019-04-25T19:03:57.697Z,8.00
2019-04-25T19:06:26.683Z,8.00
2019-04-25T19:08:54.084Z,8.00
2019-04-25T19:11:21.587Z,8.00
2019-04-25T19:13:48.699Z,8.00
2019-04-25T19:16:16.018Z,8.00
2019-04-25T19:18:45.433Z,8.00
2019-04-25T19:21:12.705Z,8.00
2019-04-25T19:23:41.804Z,8.00
2019-04-25T19:26:12.401Z,8.00
2019-04-25T19:28:40.100Z,8.00
2019-04-25T19:31:09.046Z,8.00
2019-04-25T19:33:37.081Z,7.90
2019-04-25T19:36:04.057Z,7.90
2019-04-25T19:38:32.735Z,7.90
2019-04-25T19:41:01.768Z,7.90
2019-04-25T19:43:40.974Z,7.90
2019-04-25T19:46:08.065Z,7.90
2019-04-25T19:48:35.451Z,7.90
2019-04-25T19:51:02.680Z,7.90
2019-04-25T19:53:32.266Z,8.20
2019-04-25T19:55:59.343Z,7.90
2019-04-25T19:58:26.589Z,7.80
2019-04-25T20:00:53.665Z,7.80
2019-04-25T20:03:22.870Z,7.80
2019-04-25T20:05:56.480Z,7.80
2019-04-25T20:08:44.836Z,7.80
2019-04-25T20:11:13.897Z,7.80
2019-04-25T20:13:41.147Z,7.80
2019-04-25T20:16:08.296Z,7.70
2019-04-25T20:18:35.827Z,7.80
2019-04-25T20:21:03.274Z,7.80
2019-04-25T20:23:32.684Z,7.80
2019-04-25T20:25:59.978Z,7.80
2019-04-25T20:28:29.062Z,7.80
2019-04-25T20:30:57.111Z,7.80
2019-04-25T20:33:24.297Z,7.80
2019-04-25T20:35:53.188Z,7.80
2019-04-25T20:38:22.682Z,7.80
2019-04-25T20:40:51.717Z,7.80
2019-04-25T20:43:19.019Z,7.80
2019-04-25T20:45:46.866Z,7.80
2019-04-25T20:48:15.010Z,5.90
2019-04-25T20:50:42.040Z,7.70
2019-04-25T20:53:09.130Z,7.70
2019-04-25T20:55:36.218Z,7.70
2019-04-25T20:58:03.267Z,7.70
2019-04-25T21:00:43.675Z,7.70
2019-04-25T21:03:10.867Z,7.80
2019-04-25T21:05:37.900Z,7.80
2019-04-25T21:08:05.058Z,7.70
2019-04-25T21:10:32.037Z,7.70
2019-04-25T21:12:59.087Z,7.70
2019-04-25T21:15:31.157Z,7.70
2019-04-25T21:18:05.910Z,7.80
2019-04-25T21:20:32.983Z,7.70
2019-04-25T21:23:00.058Z,7.70
2019-04-25T21:25:27.079Z,7.70
2019-04-25T21:27:54.501Z,7.70
2019-04-25T21:30:21.601Z,7.70
2019-04-25T21:32:50.542Z,7.70
2019-04-25T21:35:19.753Z,7.70
2019-04-25T21:37:46.796Z,7.70
2019-04-25T21:40:16.729Z,7.70
2019-04-25T21:42:45.980Z,7.70
2019-04-25T21:45:13.441Z,7.70
2019-04-25T21:47:40.526Z,7.60
2019-04-25T21:50:08.266Z,7.60
2019-04-25T21:52:35.614Z,7.60
2019-04-25T21:55:04.662Z,7.60
2019-04-25T21:57:32.042Z,7.60
2019-04-25T22:00:06.115Z,7.60
2019-04-25T22:02:30.758Z,7.60
2019-04-25T22:04:58.550Z,7.60
2019-04-25T22:07:25.987Z,7.60
2019-04-25T22:09:53.302Z,7.60
2019-04-25T22:12:20.342Z,7.60
2019-04-25T22:14:47.333Z,7.60
2019-04-25T22:17:14.474Z,7.60
2019-04-25T22:19:41.908Z,7.60
2019-04-25T22:22:09.328Z,7.60
2019-04-25T22:24:36.452Z,7.50
2019-04-25T22:27:05.410Z,7.50
2019-04-25T22:29:34.301Z,7.50
2019-04-25T22:32:20.078Z,7.50
2019-04-25T22:35:05.922Z,7.50
2019-04-25T22:37:32.957Z,7.50
2019-04-25T22:40:01.232Z,7.50
2019-04-25T22:42:28.301Z,7.40
2019-04-25T22:44:55.387Z,7.40
2019-04-25T22:47:22.402Z,7.50
2019-04-25T22:49:49.461Z,7.50
2019-04-25T22:52:16.838Z,7.50
2019-04-25T22:54:44.273Z,7.50
2019-04-25T22:57:12.602Z,7.50
2019-04-25T22:59:40.469Z,7.60
2019-04-25T23:02:10.133Z,7.60
2019-04-25T23:04:41.937Z,7.60
2019-04-25T23:07:15.891Z,7.60
2019-04-25T23:09:43.313Z,7.60
2019-04-25T23:12:10.674Z,7.60
2019-04-25T23:14:38.033Z,7.60
2019-04-25T23:17:05.124Z,7.60
2019-04-25T23:19:32.200Z,7.50
2019-04-25T23:22:00.337Z,7.50
2019-04-25T23:24:29.288Z,7.50
2019-04-25T23:27:05.164Z,7.50
2019-04-25T23:29:33.101Z,7.50
2019-04-25T23:32:00.085Z,7.50
2019-04-25T23:34:27.540Z,7.50
2019-04-25T23:36:54.566Z,7.50
2019-04-25T23:39:22.017Z,7.50
2019-04-25T23:41:49.513Z,7.50
2019-04-25T23:44:16.558Z,7.50
2019-04-25T23:46:44.902Z,7.50
2019-04-25T23:49:12.717Z,7.50
2019-04-25T23:51:39.848Z,7.50
2019-04-25T23:54:07.598Z,7.60
2019-04-25T23:56:34.838Z,7.60
2019-04-25T23:59:02.608Z,7.60
